Time;durP1;ratioP1;P1;durP2;ratioP2;P2;SDS_P1;SDS_P2;PMS_P1;PMS_P2;Temp;Humidity;BMP_temperature;BMP_pressure;BME280_temperature;BME280_humidity;BME280_pressure;Samples;Min_cycle;Max_cycle;Signal;HPM_P1;HPM_P2
2021/01/17 00:00:10;;;;;;;6.47;3.30;;;;;;;;;;4975759;28;20572;-66
2021/01/17 00:02:36;;;;;;;4.22;1.83;;;;;;;;;;4996051;28;20029;-69
2021/01/17 00:05:03;;;;;;;5.43;1.95;;;;;;;;;;4975730;28;20080;-66
2021/01/17 00:07:30;;;;;;;4.47;2.33;;;;;;;;;;4995744;28;20154;-68
2021/01/17 00:09:56;;;;;;;10.20;4.15;;;;;;;;;;4993923;28;20481;-67
2021/01/17 00:12:22;;;;;;;3.35;2.28;;;;;;;;;;4997668;28;20398;-68
2021/01/17 00:14:48;;;;;;;5.15;2.25;;;;;;;;;;4996700;28;20034;-68
2021/01/17 00:17:16;;;;;;;3.67;1.67;;;;;;;;;;4989042;28;20517;-68
2021/01/17 00:19:43;;;;;;;3.65;1.77;;;;;;;;;;4997851;28;20141;-68
2021/01/17 00:22:19;;;;;;;0.65;0.57;;;;;;;;;;4977310;28;20063;-68
2021/01/17 00:24:44;;;;;;;6.72;1.88;;;;;;;;;;4995114;28;20033;-68
2021/01/17 00:27:12;;;;;;;1.88;0.75;;;;;;;;;;4975910;28;20046;-70
2021/01/17 00:29:38;;;;;;;10.00;4.63;;;;;;;;;;4971389;28;20221;-68
2021/01/17 00:32:07;;;;;;;5.97;2.95;;;;;;;;;;4982278;28;20053;-68
2021/01/17 00:34:33;;;;;;;3.00;2.10;;;;;;;;;;4976009;28;20466;-67
2021/01/17 00:36:59;;;;;;;2.85;1.83;;;;;;;;;;4982959;28;20067;-68
2021/01/17 00:39:24;;;;;;;9.15;4.55;;;;;;;;;;4988211;28;20034;-67
2021/01/17 00:41:50;;;;;;;10.50;3.75;;;;;;;;;;4978948;28;20080;-67
2021/01/17 00:44:15;;;;;;;2.92;1.35;;;;;;;;;;4992157;28;20037;-67
2021/01/17 00:46:41;;;;;;;2.90;2.13;;;;;;;;;;4996535;28;20440;-69
2021/01/17 00:49:07;;;;;;;1.55;0.95;;;;;;;;;;4983455;28;20025;-68
2021/01/17 00:51:44;;;;;;;2.67;2.17;;;;;;;;;;4994489;28;20032;-68
2021/01/17 00:54:13;;;;;;;5.05;1.73;;;;;;;;;;4997856;28;20525;-72
2021/01/17 00:56:39;;;;;;;3.90;2.00;;;;;;;;;;4997109;28;20494;-68
2021/01/17 00:59:05;;;;;;;5.72;2.78;;;;;;;;;;4980217;28;20968;-68
2021/01/17 01:01:43;;;;;;;9.15;4.55;;;;;;;;;;4993397;28;20032;-67
2021/01/17 01:04:09;;;;;;;6.45;3.88;;;;;;;;;;4996328;28;20520;-67
2021/01/17 01:06:35;;;;;;;3.90;1.67;;;;;;;;;;4992852;28;20029;-67
2021/01/17 01:09:02;;;;;;;11.63;5.10;;;;;;;;;;4991250;28;20025;-66
2021/01/17 01:11:28;;;;;;;7.57;2.72;;;;;;;;;;4992788;28;20192;-68
2021/01/17 01:13:53;;;;;;;4.45;2.38;;;;;;;;;;4995500;28;20026;-66
2021/01/17 01:16:19;;;;;;;2.20;1.40;;;;;;;;;;4980799;28;20037;-69
2021/01/17 01:18:44;;;;;;;1.40;1.30;;;;;;;;;;4978383;28;20056;-67
2021/01/17 01:21:13;;;;;;;9.90;4.32;;;;;;;;;;4970204;28;20141;-67
2021/01/17 01:23:41;;;;;;;7.05;2.67;;;;;;;;;;4998055;28;21464;-69
2021/01/17 01:26:06;;;;;;;1.77;1.23;;;;;;;;;;4978964;28;20436;-69
2021/01/17 01:28:32;;;;;;;1.20;0.98;;;;;;;;;;4985585;28;20677;-67
2021/01/17 01:30:58;;;;;;;15.43;5.05;;;;;;;;;;4993040;28;20382;-68
2021/01/17 01:33:23;;;;;;;3.13;1.20;;;;;;;;;;4985091;28;20072;-68
2021/01/17 01:35:51;;;;;;;6.00;2.47;;;;;;;;;;4979730;28;20087;-67
2021/01/17 01:38:19;;;;;;;1.77;1.30;;;;;;;;;;4980987;28;20040;-66
2021/01/17 01:40:51;;;;;;;2.78;1.48;;;;;;;;;;4982460;28;20116;-67
2021/01/17 01:43:21;;;;;;;1.05;0.80;;;;;;;;;;4980992;28;20096;-67
2021/01/17 01:45:46;;;;;;;5.78;3.03;;;;;;;;;;4982204;28;20040;-67
2021/01/17 01:48:12;;;;;;;4.50;2.33;;;;;;;;;;4980951;28;20306;-66
2021/01/17 01:50:39;;;;;;;5.25;2.28;;;;;;;;;;4981899;28;21840;-68
2021/01/17 01:53:05;;;;;;;5.07;2.85;;;;;;;;;;4984067;28;20365;-66
2021/01/17 01:55:31;;;;;;;0.65;0.35;;;;;;;;;;4981817;28;20592;-68
2021/01/17 01:58:00;;;;;;;4.07;3.08;;;;;;;;;;4983815;28;20088;-66
2021/01/17 02:00:25;;;;;;;5.72;1.38;;;;;;;;;;4983113;28;20787;-68
2021/01/17 02:02:50;;;;;;;1.38;0.30;;;;;;;;;;4969359;28;20033;-67
2021/01/17 02:05:16;;;;;;;3.00;1.95;;;;;;;;;;4982457;28;20392;-67
2021/01/17 02:08:00;;;;;;;6.65;3.05;;;;;;;;;;4981272;28;20162;-68
2021/01/17 02:10:26;;;;;;;10.02;5.32;;;;;;;;;;4982306;28;20555;-67
2021/01/17 02:12:56;;;;;;;1.20;0.65;;;;;;;;;;4980013;28;20120;-69
2021/01/17 02:15:31;;;;;;;10.32;4.35;;;;;;;;;;4965147;28;20022;-67
2021/01/17 02:17:59;;;;;;;3.75;1.40;;;;;;;;;;4980777;28;20444;-66
2021/01/17 02:20:25;;;;;;;3.78;1.45;;;;;;;;;;4981150;28;20124;-67
2021/01/17 02:23:00;;;;;;;9.27;3.63;;;;;;;;;;4977834;28;20560;-67
2021/01/17 02:25:29;;;;;;;2.25;0.95;;;;;;;;;;4980739;28;20108;-67
2021/01/17 02:27:56;;;;;;;1.95;0.93;;;;;;;;;;4960368;28;20045;-67
2021/01/17 02:30:22;;;;;;;9.43;4.47;;;;;;;;;;4960689;28;20034;-69
2021/01/17 02:32:49;;;;;;;14.43;5.20;;;;;;;;;;4995696;28;20125;-68
2021/01/17 02:35:15;;;;;;;3.40;1.85;;;;;;;;;;4996203;28;20081;-66
2021/01/17 02:37:53;;;;;;;4.45;2.13;;;;;;;;;;4994109;28;20468;-67
2021/01/17 02:40:37;;;;;;;4.75;2.83;;;;;;;;;;4993160;28;20206;-68
2021/01/17 02:43:05;;;;;;;8.30;3.05;;;;;;;;;;4996282;28;20141;-68
2021/01/17 02:45:31;;;;;;;14.75;6.00;;;;;;;;;;4982346;28;20042;-69
2021/01/17 02:48:04;;;;;;;14.75;5.40;;;;;;;;;;4992923;28;20037;-67
2021/01/17 02:50:30;;;;;;;4.00;2.53;;;;;;;;;;4991952;28;20535;-68
2021/01/17 02:52:57;;;;;;;16.45;6.90;;;;;;;;;;4995752;28;20029;-69
2021/01/17 02:55:27;;;;;;;18.38;6.80;;;;;;;;;;4981792;28;20045;-69
2021/01/17 02:57:57;;;;;;;8.73;5.38;;;;;;;;;;4990815;28;20041;-69
2021/01/17 03:00:25;;;;;;;6.65;2.92;;;;;;;;;;4995039;28;20026;-68
2021/01/17 03:02:50;;;;;;;9.85;3.30;;;;;;;;;;4994080;28;20052;-68
2021/01/17 03:05:22;;;;;;;7.30;2.78;;;;;;;;;;4996138;28;20090;-68
2021/01/17 03:07:50;;;;;;;3.58;1.10;;;;;;;;;;4993364;28;20383;-67
2021/01/17 03:10:15;;;;;;;4.65;2.25;;;;;;;;;;4976255;28;20520;-68
2021/01/17 03:12:42;;;;;;;10.30;4.22;;;;;;;;;;4993909;28;20088;-67
2021/01/17 03:15:10;;;;;;;2.88;2.25;;;;;;;;;;4995854;28;20053;-67
2021/01/17 03:17:36;;;;;;;0.15;0.15;;;;;;;;;;4996664;28;20105;-67
2021/01/17 03:20:01;;;;;;;2.20;0.90;;;;;;;;;;4988394;28;20094;-68
2021/01/17 03:22:27;;;;;;;5.85;2.90;;;;;;;;;;4975975;28;20544;-68
2021/01/17 03:24:52;;;;;;;5.45;2.58;;;;;;;;;;4984856;28;20103;-67
2021/01/17 03:27:18;;;;;;;12.68;5.03;;;;;;;;;;4992341;28;20682;-68
2021/01/17 03:29:43;;;;;;;12.38;3.88;;;;;;;;;;4992979;28;20193;-67
2021/01/17 03:32:09;;;;;;;1.83;1.25;;;;;;;;;;4977031;28;20054;-67
2021/01/17 03:34:34;;;;;;;3.50;2.20;;;;;;;;;;4994887;28;20040;-69
2021/01/17 03:37:00;;;;;;;1.52;0.60;;;;;;;;;;4994151;28;20116;-68
2021/01/17 03:39:25;;;;;;;4.05;1.88;;;;;;;;;;4976782;28;20578;-68
2021/01/17 03:41:51;;;;;;;3.72;1.40;;;;;;;;;;4962486;28;20833;-67
2021/01/17 03:44:17;;;;;;;10.35;4.88;;;;;;;;;;4994527;28;20033;-68
2021/01/17 03:46:43;;;;;;;5.05;2.78;;;;;;;;;;4997040;28;20041;-67
2021/01/17 03:49:09;;;;;;;5.22;2.33;;;;;;;;;;4981518;28;21678;-67
2021/01/17 03:51:35;;;;;;;1.30;0.63;;;;;;;;;;4993429;28;20380;-66
2021/01/17 03:54:00;;;;;;;14.32;5.53;;;;;;;;;;4981444;28;20059;-68
2021/01/17 03:56:46;;;;;;;0.93;0.70;;;;;;;;;;4994654;28;20044;-67
2021/01/17 03:59:12;;;;;;;4.50;1.63;;;;;;;;;;4991536;28;20048;-67
2021/01/17 04:01:37;;;;;;;5.05;1.77;;;;;;;;;;4975242;28;20057;-67
2021/01/17 04:04:03;;;;;;;3.90;2.13;;;;;;;;;;4980691;28;20162;-69
2021/01/17 04:06:28;;;;;;;2.58;1.50;;;;;;;;;;4965068;28;20117;-67
2021/01/17 04:08:54;;;;;;;5.00;2.20;;;;;;;;;;4996302;28;20347;-67
2021/01/17 04:11:20;;;;;;;1.48;1.20;;;;;;;;;;4976956;28;20041;-68
2021/01/17 04:13:45;;;;;;;1.27;0.82;;;;;;;;;;4972467;28;20474;-68
2021/01/17 04:16:11;;;;;;;4.03;1.55;;;;;;;;;;4996076;28;20553;-67
2021/01/17 04:18:37;;;;;;;2.53;1.70;;;;;;;;;;4997858;28;20039;-68
2021/01/17 04:21:02;;;;;;;1.00;0.43;;;;;;;;;;4985452;28;20038;-68
2021/01/17 04:23:28;;;;;;;2.72;1.85;;;;;;;;;;4979266;28;20244;-69
2021/01/17 04:25:53;;;;;;;6.60;3.15;;;;;;;;;;4998405;28;20041;-67
2021/01/17 04:28:21;;;;;;;14.65;6.63;;;;;;;;;;4997545;28;20104;-66
2021/01/17 04:30:46;;;;;;;8.45;3.83;;;;;;;;;;4994366;28;20065;-67
2021/01/17 04:33:16;;;;;;;1.70;1.08;;;;;;;;;;4977714;28;20152;-67
2021/01/17 04:35:42;;;;;;;8.70;3.72;;;;;;;;;;4976399;28;20042;-68
2021/01/17 04:38:08;;;;;;;1.95;1.73;;;;;;;;;;4976615;28;20029;-67
2021/01/17 04:40:36;;;;;;;4.70;1.80;;;;;;;;;;4981512;28;20030;-68
2021/01/17 04:43:09;;;;;;;2.75;1.33;;;;;;;;;;4937633;28;20035;-67
2021/01/17 04:45:35;;;;;;;5.57;2.58;;;;;;;;;;4975177;28;20034;-67
2021/01/17 04:48:01;;;;;;;3.88;2.67;;;;;;;;;;4977537;28;20268;-68
2021/01/17 04:50:29;;;;;;;5.35;2.05;;;;;;;;;;4971632;28;20045;-68
2021/01/17 04:56:30;;;;;;;8.60;3.38;;;;;;;;;;4974635;28;20138;-67
2021/01/17 04:59:08;;;;;;;0.32;0.32;;;;;;;;;;4964136;28;20030;-69
2021/01/17 05:01:37;;;;;;;1.55;1.45;;;;;;;;;;4978185;28;21628;-67
2021/01/17 05:04:17;;;;;;;4.25;1.23;;;;;;;;;;4979392;28;20763;-67
2021/01/17 05:06:47;;;;;;;3.72;1.55;;;;;;;;;;4964109;28;20034;-66
2021/01/17 05:09:19;;;;;;;1.58;1.38;;;;;;;;;;4979322;28;20459;-66
2021/01/17 05:11:50;;;;;;;7.78;2.38;;;;;;;;;;4968897;28;20045;-65
2021/01/17 05:14:21;;;;;;;2.53;1.30;;;;;;;;;;4977607;28;20485;-68
2021/01/17 05:16:48;;;;;;;2.50;1.35;;;;;;;;;;4977880;28;20034;-68
2021/01/17 05:19:15;;;;;;;0.50;0.50;;;;;;;;;;4977547;28;20096;-67
2021/01/17 05:21:44;;;;;;;1.48;1.02;;;;;;;;;;4977982;28;20286;-69
2021/01/17 05:24:11;;;;;;;0.77;0.60;;;;;;;;;;4963030;28;20045;-68
2021/01/17 05:26:41;;;;;;;1.67;1.20;;;;;;;;;;4977420;28;20285;-68
2021/01/17 05:29:07;;;;;;;4.00;2.00;;;;;;;;;;4976372;28;20045;-69
2021/01/17 05:31:32;;;;;;;8.07;2.42;;;;;;;;;;4983760;28;20100;-67
2021/01/17 05:33:58;;;;;;;1.42;0.65;;;;;;;;;;4993430;28;20029;-66
2021/01/17 05:36:27;;;;;;;0.10;0.10;;;;;;;;;;4993923;28;20128;-68
2021/01/17 05:42:27;;;;;;;6.07;2.13;;;;;;;;;;4995258;28;20123;-68
2021/01/17 05:44:54;;;;;;;3.22;1.27;;;;;;;;;;4993238;28;20029;-68
2021/01/17 05:47:21;;;;;;;0.75;0.60;;;;;;;;;;4995694;28;20033;-70
2021/01/17 05:49:47;;;;;;;0.10;0.10;;;;;;;;;;4995462;28;20026;-69
2021/01/17 05:52:14;;;;;;;1.15;0.85;;;;;;;;;;4979204;28;20030;-71
2021/01/17 05:54:41;;;;;;;3.15;1.20;;;;;;;;;;4996563;28;20029;-70
2021/01/17 05:57:28;;;;;;;1.33;0.43;;;;;;;;;;4994201;28;20119;-70
2021/01/17 05:59:55;;;;;;;0.73;0.73;;;;;;;;;;5001484;28;20036;-70
2021/01/17 06:02:22;;;;;;;0.88;0.77;;;;;;;;;;5000923;28;20033;-71
2021/01/17 06:04:48;;;;;;;1.20;0.65;;;;;;;;;;5003523;28;20114;-70
2021/01/17 06:07:16;;;;;;;2.70;1.27;;;;;;;;;;5008803;28;20426;-71
2021/01/17 06:09:44;;;;;;;3.30;1.48;;;;;;;;;;5013516;28;20040;-74
2021/01/17 06:12:10;;;;;;;1.58;0.80;;;;;;;;;;4997753;28;20289;-74
2021/01/17 06:14:38;;;;;;;1.92;1.25;;;;;;;;;;4995154;28;20042;-73
2021/01/17 06:17:10;;;;;;;1.13;0.95;;;;;;;;;;4995216;28;20038;-72
2021/01/17 06:19:38;;;;;;;2.53;0.75;;;;;;;;;;4977700;28;20041;-70
2021/01/17 06:22:08;;;;;;;10.60;3.33;;;;;;;;;;4995932;28;20030;-68
2021/01/17 06:24:38;;;;;;;2.33;1.15;;;;;;;;;;4983208;28;20030;-68
2021/01/17 06:27:06;;;;;;;1.35;0.70;;;;;;;;;;4995957;28;20056;-66
2021/01/17 06:29:35;;;;;;;3.70;1.55;;;;;;;;;;4995589;28;20458;-66
2021/01/17 06:32:07;;;;;;;3.97;1.95;;;;;;;;;;4973269;28;20045;-66
2021/01/17 06:34:35;;;;;;;2.00;0.75;;;;;;;;;;4974543;28;21764;-66
2021/01/17 06:37:12;;;;;;;2.42;1.15;;;;;;;;;;4977467;28;20029;-66
2021/01/17 06:39:37;;;;;;;;;;;;;;;;;;4994067;28;20026;-66
2021/01/17 06:42:08;;;;;;;11.57;4.68;;;;;;;;;;4992048;28;19919;-65
2021/01/17 06:44:36;;;;;;;6.43;2.55;;;;;;;;;;4990953;28;20120;-65
2021/01/17 06:47:05;;;;;;;3.10;1.00;;;;;;;;;;4992871;28;20098;-65
2021/01/17 06:49:31;;;;;;;0.77;0.63;;;;;;;;;;4983383;28;20113;-65
2021/01/17 06:52:02;;;;;;;15.10;4.00;;;;;;;;;;4993506;28;20034;-65
2021/01/17 06:54:31;;;;;;;1.95;1.25;;;;;;;;;;4994478;28;20029;-65
2021/01/17 06:57:00;;;;;;;7.35;2.03;;;;;;;;;;4986599;28;20096;-65
2021/01/17 06:59:35;;;;;;;0.63;0.60;;;;;;;;;;4992690;28;20033;-66
2021/01/17 07:02:12;;;;;;;5.65;1.88;;;;;;;;;;4996142;28;20059;-66
2021/01/17 07:04:56;;;;;;;6.80;1.38;;;;;;;;;;4996026;28;20029;-67
2021/01/17 07:07:36;;;;;;;3.05;0.73;;;;;;;;;;4989167;28;20029;-66
2021/01/17 07:10:06;;;;;;;8.00;3.58;;;;;;;;;;4990438;28;20548;-66
2021/01/17 07:12:33;;;;;;;0.98;0.63;;;;;;;;;;4988431;28;20798;-65
2021/01/17 07:15:04;;;;;;;5.25;1.90;;;;;;;;;;4993546;28;20489;-65
2021/01/17 07:17:35;;;;;;;1.05;0.60;;;;;;;;;;4991626;28;20139;-64
2021/01/17 07:20:07;;;;;;;4.25;0.70;;;;;;;;;;4988841;28;20485;-64
2021/01/17 07:22:35;;;;;;;0.80;0.50;;;;;;;;;;4984365;28;20545;-65
2021/01/17 07:25:01;;;;;;;1.17;0.95;;;;;;;;;;4995473;28;20149;-65
2021/01/17 07:27:27;;;;;;;1.48;1.30;;;;;;;;;;4991397;28;20030;-65
2021/01/17 07:29:57;;;;;;;0.82;0.60;;;;;;;;;;4993855;28;21701;-65
2021/01/17 07:32:30;;;;;;;1.95;0.73;;;;;;;;;;4985980;28;20107;-66
2021/01/17 07:35:04;;;;;;;12.30;1.75;;;;;;;;;;4973402;28;20056;-65
2021/01/17 07:37:29;;;;;;;11.50;3.22;;;;;;;;;;4957251;28;20041;-65
2021/01/17 07:39:56;;;;;;;5.13;1.35;;;;;;;;;;4958966;28;20097;-65
2021/01/17 07:42:22;;;;;;;5.63;1.85;;;;;;;;;;4974905;28;20328;-65
2021/01/17 07:44:53;;;;;;;0.98;0.93;;;;;;;;;;4975630;28;20026;-65
2021/01/17 07:47:27;;;;;;;5.00;1.00;;;;;;;;;;4969928;28;20657;-65
2021/01/17 07:49:55;;;;;;;4.57;1.73;;;;;;;;;;4967582;28;20038;-64
2021/01/17 07:52:21;;;;;;;0.35;0.35;;;;;;;;;;4977015;28;20493;-66
2021/01/17 07:54:48;;;;;;;8.02;3.25;;;;;;;;;;4945937;28;20133;-66
2021/01/17 07:57:19;;;;;;;1.83;0.60;;;;;;;;;;4979777;28;20620;-65
2021/01/17 07:59:44;;;;;;;0.82;0.68;;;;;;;;;;4979113;28;20037;-65
2021/01/17 08:02:23;;;;;;;0.70;0.70;;;;;;;;;;4980607;28;20061;-64
2021/01/17 08:04:52;;;;;;;3.67;2.40;;;;;;;;;;4980184;28;20203;-64
2021/01/17 08:07:29;;;;;;;4.90;3.20;;;;;;;;;;4980103;28;20509;-64
2021/01/17 08:09:57;;;;;;;9.35;3.53;;;;;;;;;;4978821;28;20077;-64
2021/01/17 08:12:35;;;;;;;6.55;1.98;;;;;;;;;;4980331;28;20156;-64
2021/01/17 08:15:12;;;;;;;3.05;1.50;;;;;;;;;;4966685;28;20100;-66
2021/01/17 08:17:40;;;;;;;14.35;5.93;;;;;;;;;;4967233;28;20804;-65
2021/01/17 08:20:19;;;;;;;3.08;1.20;;;;;;;;;;4977413;28;20065;-64
2021/01/17 08:22:48;;;;;;;1.40;1.20;;;;;;;;;;4978658;28;20121;-65
2021/01/17 08:25:34;;;;;;;1.92;1.10;;;;;;;;;;4981345;28;20064;-68
2021/01/17 08:28:20;;;;;;;1.25;1.13;;;;;;;;;;4980133;28;20039;-66
2021/01/17 08:30:45;;;;;;;2.08;0.60;;;;;;;;;;4958368;28;20378;-65
2021/01/17 08:33:11;;;;;;;2.53;1.63;;;;;;;;;;4977561;28;20746;-66
2021/01/17 08:35:45;;;;;;;3.75;1.98;;;;;;;;;;4979678;28;20351;-66
2021/01/17 08:38:11;;;;;;;3.75;2.10;;;;;;;;;;4983603;28;20336;-67
2021/01/17 08:40:37;;;;;;;3.08;1.42;;;;;;;;;;4979750;28;20713;-66
2021/01/17 08:43:12;;;;;;;2.08;1.42;;;;;;;;;;4990562;28;20386;-65
2021/01/17 08:45:40;;;;;;;5.15;2.70;;;;;;;;;;4995410;28;20026;-65
2021/01/17 08:48:14;;;;;;;3.50;1.15;;;;;;;;;;4993350;28;20128;-65
2021/01/17 08:50:40;;;;;;;5.47;2.85;;;;;;;;;;4995782;28;20754;-66
2021/01/17 08:53:08;;;;;;;1.75;0.90;;;;;;;;;;4994459;28;20024;-65
2021/01/17 08:55:37;;;;;;;1.55;1.45;;;;;;;;;;4995055;28;20029;-65
2021/01/17 08:58:06;;;;;;;3.55;2.15;;;;;;;;;;4992415;28;20026;-65
2021/01/17 09:00:49;;;;;;;0.45;0.45;;;;;;;;;;4979131;28;20477;-65
2021/01/17 09:03:31;;;;;;;2.53;1.75;;;;;;;;;;4993147;28;20093;-67
2021/01/17 09:05:58;;;;;;;3.85;1.42;;;;;;;;;;4993063;28;20032;-65
2021/01/17 09:08:24;;;;;;;1.85;1.52;;;;;;;;;;4976438;28;20026;-66
2021/01/17 09:10:50;;;;;;;0.05;0.05;;;;;;;;;;4984331;28;20060;-65
2021/01/17 09:13:21;;;;;;;1.13;1.02;;;;;;;;;;4995064;28;20033;-66
2021/01/17 09:15:58;;;;;;;0.80;0.50;;;;;;;;;;4997456;28;20052;-65
2021/01/17 09:18:30;;;;;;;2.38;0.77;;;;;;;;;;4987076;28;20094;-66
2021/01/17 09:20:57;;;;;;;2.08;1.10;;;;;;;;;;4991286;28;20038;-66
2021/01/17 09:23:25;;;;;;;1.60;1.10;;;;;;;;;;4984979;28;20029;-65
2021/01/17 09:25:58;;;;;;;5.80;3.33;;;;;;;;;;4991997;28;20105;-66
2021/01/17 09:28:29;;;;;;;10.25;4.60;;;;;;;;;;4993306;28;20025;-66
2021/01/17 09:30:55;;;;;;;3.15;1.80;;;;;;;;;;4977336;28;20030;-67
2021/01/17 09:33:21;;;;;;;1.23;1.13;;;;;;;;;;4991657;28;20546;-66
2021/01/17 09:35:47;;;;;;;4.70;2.70;;;;;;;;;;4992449;28;20033;-67
2021/01/17 09:38:18;;;;;;;3.38;2.08;;;;;;;;;;4992814;28;20037;-67
2021/01/17 09:40:45;;;;;;;4.57;2.25;;;;;;;;;;4994284;28;20087;-66
2021/01/17 09:43:10;;;;;;;5.70;3.47;;;;;;;;;;4973602;28;20029;-67
2021/01/17 09:45:36;;;;;;;22.38;7.90;;;;;;;;;;4990381;28;20370;-67
2021/01/17 09:48:04;;;;;;;5.32;2.83;;;;;;;;;;4980070;28;20025;-67
2021/01/17 09:50:33;;;;;;;9.40;4.45;;;;;;;;;;4982292;28;20033;-67
2021/01/17 09:53:10;;;;;;;3.50;1.55;;;;;;;;;;4993734;28;20100;-68
2021/01/17 09:55:44;;;;;;;5.78;3.47;;;;;;;;;;4994430;28;20116;-69
2021/01/17 09:58:15;;;;;;;1.55;1.17;;;;;;;;;;4981147;28;20045;-69
2021/01/17 10:00:42;;;;;;;1.27;0.75;;;;;;;;;;4990560;28;20057;-70
2021/01/17 10:03:07;;;;;;;10.35;3.83;;;;;;;;;;4982100;28;20033;-68
2021/01/17 10:05:38;;;;;;;7.70;3.13;;;;;;;;;;4993543;28;20122;-69
2021/01/17 10:08:05;;;;;;;11.00;3.70;;;;;;;;;;4992004;28;20041;-69
2021/01/17 10:10:34;;;;;;;1.63;1.08;;;;;;;;;;4988028;28;20075;-71
2021/01/17 10:13:05;;;;;;;10.10;3.05;;;;;;;;;;4969656;28;20388;-70
2021/01/17 10:15:33;;;;;;;3.53;2.63;;;;;;;;;;4982584;28;20029;-73
2021/01/17 10:18:02;;;;;;;9.02;3.05;;;;;;;;;;4994324;28;20745;-72
2021/01/17 10:20:33;;;;;;;6.75;2.78;;;;;;;;;;4980423;28;20044;-72
2021/01/17 10:23:03;;;;;;;7.63;5.00;;;;;;;;;;4994081;28;20827;-73
2021/01/17 10:25:34;;;;;;;2.40;1.38;;;;;;;;;;4968292;28;20033;-74
2021/01/17 10:28:07;;;;;;;19.27;7.40;;;;;;;;;;4975556;28;20048;-73
2021/01/17 10:30:33;;;;;;;3.65;2.20;;;;;;;;;;4991541;28;20042;-72
2021/01/17 10:33:06;;;;;;;7.78;4.18;;;;;;;;;;4980344;28;20044;-71
2021/01/17 10:35:39;;;;;;;8.35;4.22;;;;;;;;;;4991262;28;20752;-71
2021/01/17 10:38:05;;;;;;;11.30;4.80;;;;;;;;;;4992914;28;20033;-72
2021/01/17 10:40:31;;;;;;;3.03;1.67;;;;;;;;;;4976247;28;20029;-72
2021/01/17 10:42:59;;;;;;;1.40;1.00;;;;;;;;;;4993495;28;22111;-71
2021/01/17 10:45:26;;;;;;;3.55;1.73;;;;;;;;;;4990438;28;20121;-72
2021/01/17 10:48:03;;;;;;;5.82;2.58;;;;;;;;;;4990481;28;20029;-74
2021/01/17 10:50:47;;;;;;;3.53;2.38;;;;;;;;;;4991716;28;20021;-73
2021/01/17 10:53:17;;;;;;;14.20;3.42;;;;;;;;;;4992988;28;20037;-73
2021/01/17 10:55:50;;;;;;;2.40;0.82;;;;;;;;;;4978656;28;20112;-73
2021/01/17 10:58:23;;;;;;;7.90;4.43;;;;;;;;;;4991736;28;20030;-73
2021/01/17 11:00:59;;;;;;;11.15;4.65;;;;;;;;;;4994929;28;20447;-73
2021/01/17 11:03:34;;;;;;;3.55;2.13;;;;;;;;;;4988672;28;21572;-74
2021/01/17 11:05:59;;;;;;;;;;;;;;;;;;4973822;28;20503;-74
2021/01/17 11:08:31;;;;;;;2.60;1.73;;;;;;;;;;4981993;28;19979;-74
2021/01/17 11:10:59;;;;;;;1.02;0.88;;;;;;;;;;4991594;28;20378;-74
2021/01/17 11:13:27;;;;;;;4.13;2.65;;;;;;;;;;4992559;28;20029;-73
2021/01/17 11:15:58;;;;;;;2.72;1.95;;;;;;;;;;4993207;28;20537;-73
2021/01/17 11:18:26;;;;;;;1.13;1.08;;;;;;;;;;4977372;28;20037;-73
2021/01/17 11:20:57;;;;;;;2.00;1.27;;;;;;;;;;4974496;28;20045;-73
2021/01/17 11:23:23;;;;;;;7.90;3.60;;;;;;;;;;4993467;28;20640;-72
2021/01/17 11:26:04;;;;;;;3.85;2.55;;;;;;;;;;4996537;28;20053;-71
2021/01/17 11:28:34;;;;;;;5.57;3.92;;;;;;;;;;4995061;28;20076;-73
2021/01/17 11:31:20;;;;;;;11.50;4.32;;;;;;;;;;4996988;28;20652;-71
2021/01/17 11:33:47;;;;;;;1.33;1.17;;;;;;;;;;4974614;28;20046;-71
2021/01/17 11:36:24;;;;;;;3.38;1.77;;;;;;;;;;4995828;28;20025;-73
2021/01/17 11:38:53;;;;;;;2.75;1.02;;;;;;;;;;4994035;28;20025;-74
2021/01/17 11:41:22;;;;;;;2.60;1.40;;;;;;;;;;4985282;28;20030;-74
2021/01/17 11:43:52;;;;;;;2.30;1.40;;;;;;;;;;4977336;28;20037;-73
2021/01/17 11:46:21;;;;;;;3.13;1.90;;;;;;;;;;4971784;28;20046;-72
2021/01/17 11:48:49;;;;;;;6.05;3.15;;;;;;;;;;4993954;28;20256;-72
2021/01/17 11:51:23;;;;;;;8.93;3.72;;;;;;;;;;4984724;28;20138;-72
2021/01/17 11:53:52;;;;;;;9.32;4.13;;;;;;;;;;4992606;28;20072;-72
2021/01/17 11:56:17;;;;;;;7.35;2.58;;;;;;;;;;4987217;28;20038;-72
2021/01/17 11:58:45;;;;;;;5.43;2.75;;;;;;;;;;4994383;28;20772;-73
2021/01/17 12:01:26;;;;;;;4.45;3.03;;;;;;;;;;4970619;28;20033;-73
2021/01/17 12:04:01;;;;;;;1.83;1.23;;;;;;;;;;4992040;28;20682;-73
2021/01/17 12:06:29;;;;;;;1.80;1.35;;;;;;;;;;4978549;28;20037;-73
2021/01/17 12:09:00;;;;;;;4.00;2.30;;;;;;;;;;4976546;28;20032;-73
2021/01/17 12:11:29;;;;;;;4.97;2.63;;;;;;;;;;4992713;28;20768;-74
2021/01/17 12:13:57;;;;;;;8.68;3.28;;;;;;;;;;4991511;28;20025;-73
2021/01/17 12:16:29;;;;;;;5.55;2.22;;;;;;;;;;4992049;28;20060;-73
2021/01/17 12:18:55;;;;;;;4.45;2.70;;;;;;;;;;4976910;28;20037;-73
2021/01/17 12:21:21;;;;;;;5.75;3.50;;;;;;;;;;4992368;28;20098;-72
2021/01/17 12:23:49;;;;;;;2.88;1.98;;;;;;;;;;4982615;28;20330;-73
2021/01/17 12:26:17;;;;;;;2.30;1.75;;;;;;;;;;4972445;28;20503;-73
2021/01/17 12:28:45;;;;;;;5.30;3.17;;;;;;;;;;4994813;28;21077;-75
2021/01/17 12:31:17;;;;;;;3.50;2.20;;;;;;;;;;4998588;28;20033;-74
2021/01/17 12:33:46;;;;;;;7.25;3.00;;;;;;;;;;4996829;28;20081;-74
2021/01/17 12:36:12;;;;;;;7.97;3.72;;;;;;;;;;4995183;28;20124;-75
2021/01/17 12:38:40;;;;;;;4.90;2.30;;;;;;;;;;4996821;28;20026;-75
2021/01/17 12:41:06;;;;;;;4.30;2.22;;;;;;;;;;4973134;28;20035;-74
2021/01/17 12:43:35;;;;;;;7.72;3.30;;;;;;;;;;4981377;28;20048;-75
2021/01/17 12:46:01;;;;;;;4.20;2.38;;;;;;;;;;4994129;28;20762;-74
2021/01/17 12:48:29;;;;;;;4.30;2.47;;;;;;;;;;4995958;28;20033;-75
2021/01/17 12:50:57;;;;;;;4.40;2.95;;;;;;;;;;4977974;28;20177;-74
2021/01/17 12:53:24;;;;;;;11.88;3.25;;;;;;;;;;4981929;28;20044;-74
2021/01/17 12:55:50;;;;;;;6.82;3.92;;;;;;;;;;4992893;28;20045;-74
2021/01/17 12:58:18;;;;;;;7.43;4.13;;;;;;;;;;4967510;28;20037;-74
2021/01/17 13:00:44;;;;;;;10.82;3.50;;;;;;;;;;4977754;28;20116;-74
2021/01/17 13:03:09;;;;;;;11.32;4.68;;;;;;;;;;4996245;28;20053;-73
2021/01/17 13:05:35;;;;;;;12.00;5.00;;;;;;;;;;4995799;28;20123;-73
2021/01/17 13:08:06;;;;;;;12.90;4.93;;;;;;;;;;4994744;28;20396;-72
2021/01/17 13:10:34;;;;;;;11.07;4.68;;;;;;;;;;4974442;28;20045;-71
2021/01/17 13:13:00;;;;;;;15.38;5.22;;;;;;;;;;4964236;28;20542;-72
2021/01/17 13:15:29;;;;;;;14.85;5.57;;;;;;;;;;4989776;28;20037;-69
2021/01/17 13:18:02;;;;;;;12.50;5.43;;;;;;;;;;4991531;28;20555;-69
2021/01/17 13:20:27;;;;;;;11.75;5.50;;;;;;;;;;4978068;28;20033;-70
2021/01/17 13:22:59;;;;;;;13.40;5.93;;;;;;;;;;4990255;28;20158;-69
2021/01/17 13:25:27;;;;;;;15.18;5.20;;;;;;;;;;4973936;28;20100;-69
2021/01/17 13:27:55;;;;;;;15.63;5.40;;;;;;;;;;4982888;28;20813;-69
2021/01/17 13:30:23;;;;;;;17.33;5.53;;;;;;;;;;4996278;28;20057;-69
2021/01/17 13:32:53;;;;;;;17.35;6.38;;;;;;;;;;4975686;28;20428;-70
2021/01/17 13:35:18;;;;;;;15.05;6.20;;;;;;;;;;4990030;28;20030;-66
2021/01/17 13:37:44;;;;;;;14.10;6.72;;;;;;;;;;4994040;28;20592;-69
2021/01/17 13:40:12;;;;;;;17.75;6.68;;;;;;;;;;4979994;28;20112;-68
2021/01/17 13:42:40;;;;;;;14.40;6.20;;;;;;;;;;4980435;28;20029;-68
2021/01/17 13:45:06;;;;;;;22.27;6.85;;;;;;;;;;4995844;28;20748;-68
2021/01/17 13:47:39;;;;;;;11.27;6.00;;;;;;;;;;4943808;28;20548;-69
2021/01/17 13:50:07;;;;;;;21.35;5.20;;;;;;;;;;4912079;28;20128;-69
2021/01/17 13:52:33;;;;;;;16.10;5.05;;;;;;;;;;4950294;28;20124;-69
2021/01/17 13:55:01;;;;;;;13.25;5.65;;;;;;;;;;4980943;28;20157;-68
2021/01/17 13:57:38;;;;;;;14.05;5.18;;;;;;;;;;4979463;28;20030;-69
2021/01/17 14:00:06;;;;;;;10.63;4.95;;;;;;;;;;4994837;28;20468;-69
2021/01/17 14:02:31;;;;;;;9.48;3.88;;;;;;;;;;4996700;28;20028;-67
2021/01/17 14:05:18;;;;;;;13.07;4.53;;;;;;;;;;4982192;28;20073;-67
2021/01/17 14:07:47;;;;;;;10.20;4.18;;;;;;;;;;4996840;28;20041;-68
2021/01/17 14:10:15;;;;;;;13.02;4.82;;;;;;;;;;4981874;28;20119;-70
2021/01/17 14:12:43;;;;;;;14.60;4.78;;;;;;;;;;4992238;28;20924;-68
2021/01/17 14:15:12;;;;;;;15.98;5.07;;;;;;;;;;4995007;28;20040;-67
2021/01/17 14:17:38;;;;;;;15.18;5.00;;;;;;;;;;4994276;28;20636;-68
2021/01/17 14:20:06;;;;;;;22.08;5.68;;;;;;;;;;4994912;28;21855;-68
2021/01/17 14:22:35;;;;;;;12.95;5.63;;;;;;;;;;4995128;28;20356;-69
2021/01/17 14:25:04;;;;;;;14.63;4.60;;;;;;;;;;4995110;28;20088;-69
2021/01/17 14:27:30;;;;;;;15.82;4.82;;;;;;;;;;4994912;28;20132;-69
2021/01/17 14:29:56;;;;;;;16.38;4.57;;;;;;;;;;4993411;28;20094;-68
2021/01/17 14:32:21;;;;;;;13.57;3.70;;;;;;;;;;4996167;28;20058;-67
2021/01/17 14:34:47;;;;;;;13.05;3.80;;;;;;;;;;4994996;28;20056;-67
2021/01/17 14:37:17;;;;;;;10.63;3.95;;;;;;;;;;4994384;28;20033;-68
2021/01/17 14:39:43;;;;;;;20.85;4.00;;;;;;;;;;4975994;28;20120;-67
2021/01/17 14:42:10;;;;;;;13.27;3.28;;;;;;;;;;4978548;28;21672;-66
2021/01/17 14:44:36;;;;;;;26.65;4.57;;;;;;;;;;4996502;28;20041;-67
2021/01/17 14:47:02;;;;;;;11.55;3.10;;;;;;;;;;4972231;28;20037;-68
2021/01/17 14:49:28;;;;;;;14.05;3.22;;;;;;;;;;4995172;28;20069;-66
2021/01/17 14:52:00;;;;;;;14.38;2.42;;;;;;;;;;4981038;28;20079;-67
2021/01/17 14:54:26;;;;;;;24.40;3.30;;;;;;;;;;4991394;28;20040;-66
2021/01/17 14:56:52;;;;;;;17.10;2.55;;;;;;;;;;4992034;28;20033;-66